Seana C — WDJ3319 — position and weather

sailwx.info

Track history (hours):
 
Tides and Currents Weather Stations Pressure Air Temp Water Temp Dewpoint Dewpoint Depression Visibility Wind Speed Wind Dir Waves Ship Positions

Seana C

Owner: Curtin Maritime Corp, long beach, CA. More information available from US FCC via Universal Licensing System and Coast Guard Vessel Documentation Center.

Last reported at 2018-Jul-14 20:06 UTC. Time now 2018-Jul-19 13:09 UTC.
Position N 33°46' W 118°13'.

Length 21 m; draft 3 m.

Type: Tug. MMSI: 367766860.

Date/timePositionNaut miles runAvg speedWind from/ knotsBaromVisibWave heightAir tempDewpointWater temp
2018-Jul-14 20:06N 33°46' W 118°13'0 0.0
2018-Jul-14 20:00N 33°46' W 118°13'1 3.0
2018-Jul-14 19:30N 33°45' W 118°13'3 6.5
2018-Jul-14 19:00N 33°43' W 118°16'0 0.1
2018-Jul-14 18:30N 33°43' W 118°17'0 0.1
2018-Jul-14 18:00N 33°43' W 118°16'0 0.5
2018-Jul-14 17:30N 33°43' W 118°16'0 0.5
2018-Jul-14 17:00N 33°43' W 118°16'0 0.1
2018-Jul-14 16:30N 33°43' W 118°16'3 6.6
2018-Jul-14 16:00N 33°45' W 118°13'1 0.0
2018-Jul-12 15:14N 33°46' W 118°13'0 0.5
2018-Jul-12 15:00N 33°46' W 118°13'0 0.0
2018-Jul-11 17:00N 33°46' W 118°13'0 0.0
2018-Jul-10 21:16N 33°46' W 118°13'0 0.0
2018-Jul-10 21:00N 33°46' W 118°13'0 0.0
2018-Jul-10 20:30N 33°46' W 118°13'0 0.0
2018-Jul-10 20:00N 33°46' W 118°13'0 0.0
2018-Jul-10 19:30N 33°46' W 118°13'2 4.5
2018-Jul-10 19:00N 33°44' W 118°12'5 9.6
2018-Jul-10 18:30N 33°44' W 118°06'1 1.4
2018-Jul-10 18:00N 33°44' W 118°06'3 6.0
2018-Jul-10 17:30N 33°41' W 118°05'4 8.2
2018-Jul-10 17:00N 33°38' W 118°03'4 8.1
2018-Jul-10 16:30N 33°34' W 117°60'4 8.0
2018-Jul-10 16:00N 33°31' W 117°57'4 8.1
2018-Jul-10 15:30N 33°28' W 117°54'4 8.0
2018-Jul-10 15:00N 33°24' W 117°52'4 8.0
2018-Jul-10 14:30N 33°21' W 117°49'4 7.9
2018-Jul-10 14:00N 33°18' W 117°46'4 7.8
2018-Jul-10 13:30N 33°14' W 117°44'4 7.9
2018-Jul-10 13:00N 33°11' W 117°41'4 7.8
2018-Jul-10 12:30N 33°08' W 117°39'4 7.8
2018-Jul-10 12:01N 33°05' W 117°36'4 7.9
2018-Jul-10 11:31N 33°01' W 117°33'4 8.1
2018-Jul-10 11:00N 32°58' W 117°30'4 8.1
2018-Jul-10 10:30N 32°55' W 117°28'4 7.9
2018-Jul-10 10:00N 32°52' W 117°25'4 7.8
2018-Jul-10 09:30N 32°48' W 117°23'4 7.6
2018-Jul-10 09:00N 32°45' W 117°20'4 7.8
2018-Jul-10 08:29N 32°42' W 117°17'4 7.7
2018-Jul-10 08:00N 32°39' W 117°15'3 6.0
2018-Jul-10 07:30N 32°42' W 117°14'6 5.8
2018-Jul-10 06:31N 32°40' W 117°08'0 8.9
2018-Jul-10 06:30N 32°40' W 117°08'2 3.8
2018-Jul-10 06:00N 32°38' W 117°07'1 1.0
2018-Jul-10 05:29N 32°38' W 117°07'4 7.3
2018-Jul-10 04:56N 32°42' W 117°09'2 3.6
2018-Jul-10 04:25N 32°43' W 117°11'3 6.2
2018-Jul-10 04:00N 32°42' W 117°14'3 6.3
2018-Jul-10 03:30N 32°39' W 117°14'3 6.9
2018-Jul-10 03:00N 32°41' W 117°17'4 8.0
2018-Jul-10 02:30N 32°44' W 117°20'4 7.7
2018-Jul-10 02:00N 32°48' W 117°22'4 7.9
2018-Jul-10 01:30N 32°51' W 117°25'4 7.8
2018-Jul-10 01:00N 32°54' W 117°27'4 7.8
2018-Jul-10 00:31N 32°58' W 117°30'4 7.7
2018-Jul-10 00:00N 33°01' W 117°33'4 8.0
2018-Jul-09 23:30N 33°04' W 117°35'4 8.0
2018-Jul-09 23:00N 33°07' W 117°38'4 8.0
2018-Jul-09 22:30N 33°11' W 117°40'4 7.8
2018-Jul-09 22:01N 33°14' W 117°43'4 8.1
2018-Jul-09 21:31N 33°17' W 117°46'4 8.0
2018-Jul-09 21:00N 33°21' W 117°48'4 8.0
2018-Jul-09 20:30N 33°24' W 117°51'4 8.0
2018-Jul-09 20:00N 33°27' W 117°54'4 7.9
2018-Jul-09 19:30N 33°30' W 117°57'4 7.8
2018-Jul-09 19:01N 33°33' W 117°59'4 7.7
2018-Jul-09 18:30N 33°37' W 118°02'4 7.5
2018-Jul-09 18:00N 33°40' W 118°04'4 7.3
2018-Jul-09 17:30N 33°43' W 118°07'1 2.9
2018-Jul-09 17:00N 33°44' W 118°06'0 0.0
2018-Jul-09 16:29N 33°44' W 118°06'4 7.6
2018-Jul-09 16:00N 33°44' W 118°10'3 6.6
2018-Jul-09 15:30N 33°46' W 118°13'0 0.3
2018-Jul-09 15:00N 33°46' W 118°13'0 0.0
2018-Jul-08 01:14N 33°46' W 118°13'0 0.0
2018-Jul-08 00:59N 33°46' W 118°13'0 0.1
2018-Jul-08 00:25N 33°46' W 118°13'0 0.1
2018-Jul-07 23:54N 33°46' W 118°13'0 0.0
2018-Jul-07 23:29N 33°46' W 118°13'0 0.0
2018-Jul-07 23:00N 33°46' W 118°13'0 0.0
2018-Jul-07 22:28N 33°46' W 118°13'0 0.1
2018-Jul-07 21:58N 33°46' W 118°13'0 0.0
2018-Jul-07 21:27N 33°46' W 118°13'0 0.0
2018-Jul-07 20:59N 33°46' W 118°13'0 0.0
2018-Jul-07 20:26N 33°46' W 118°13'0 0.0
2018-Jul-07 19:59N 33°46' W 118°13'0 0.0
2018-Jul-07 19:28N 33°46' W 118°13'0 0.0
2018-Jul-07 18:55N 33°46' W 118°13'0 0.0
2018-Jul-07 18:20N 33°46' W 118°13'0 0.0
2018-Jul-07 17:59N 33°46' W 118°13'0 0.0
2018-Jul-07 17:26N 33°46' W 118°13'0 0.0
2018-Jul-07 17:00N 33°46' W 118°13'0 0.0
2018-Jul-07 16:29N 33°46' W 118°13'0 0.0
2018-Jul-07 16:00N 33°46' W 118°13'0 0.0
2018-Jul-07 15:30N 33°46' W 118°13'0 0.0
2018-Jul-07 14:58N 33°46' W 118°13'0 0.0
2018-Jul-07 14:28N 33°46' W 118°13'0 0.0
2018-Jul-07 13:59N 33°46' W 118°13'0 0.0
2018-Jul-07 13:29N 33°46' W 118°13'0 0.0
2018-Jul-07 12:58N 33°46' W 118°13'0 0.0
2018-Jul-07 12:28N 33°46' W 118°13'0 0.0
2018-Jul-07 12:00N 33°46' W 118°13'0 0.0
2018-Jul-07 11:25N 33°46' W 118°13'0 0.0
2018-Jul-07 10:57N 33°46' W 118°13'0 0.0
2018-Jul-07 10:30N 33°46' W 118°13'0 0.0
2018-Jul-07 09:58N 33°46' W 118°13'0 0.0
2018-Jul-07 09:26N 33°46' W 118°13'0 0.0
2018-Jul-07 08:54N 33°46' W 118°13'0 0.0
2018-Jul-07 08:28N 33°46' W 118°13'0 0.0
2018-Jul-07 07:51N 33°46' W 118°13'0 0.0
2018-Jul-07 07:29N 33°46' W 118°13'0 0.0
2018-Jul-07 07:00N 33°46' W 118°13'0 0.0
2018-Jul-07 06:29N 33°46' W 118°13'0 0.0
2018-Jul-07 05:58N 33°46' W 118°13'0 0.0
2018-Jul-07 05:29N 33°46' W 118°13'0 0.0
2018-Jul-07 04:58N 33°46' W 118°13'0 0.0
2018-Jul-07 04:30N 33°46' W 118°13'0 0.0
2018-Jul-07 03:49N 33°46' W 118°13'0 0.0
2018-Jul-07 03:27N 33°46' W 118°13'0 0.0
2018-Jul-07 02:55N 33°46' W 118°13'0 0.0
2018-Jul-07 02:29N 33°46' W 118°13'0 0.0
2018-Jul-07 01:56N 33°46' W 118°13'0 0.0
2018-Jul-07 01:30N 33°46' W 118°13'0 0.0
2018-Jul-07 00:58N 33°46' W 118°13'0 0.0
2018-Jul-07 00:28N 33°46' W 118°13'0 0.0
2018-Jul-07 00:00N 33°46' W 118°13'0 0.0
2018-Jul-06 23:23N 33°46' W 118°13'0 0.0
2018-Jul-06 23:00N 33°46' W 118°13'0 0.0
2018-Jul-06 22:28N 33°46' W 118°13'0 0.0
2018-Jul-06 21:58N 33°46' W 118°13'0 0.0
2018-Jul-06 21:26N 33°46' W 118°13'0 0.0
2018-Jul-06 20:55N 33°46' W 118°13'0 0.0
2018-Jul-06 20:21N 33°46' W 118°13'0 0.0
2018-Jul-06 19:57N 33°46' W 118°13'0 0.0
2018-Jul-06 19:24N 33°46' W 118°13'0 0.0
2018-Jul-06 19:01N 33°46' W 118°13'0 0.2
2018-Jul-06 18:30N 33°46' W 118°13'0 0.1
2018-Jul-06 18:01N 33°46' W 118°13'0 0.1
2018-Jul-06 17:30N 33°46' W 118°13'1 1.7
2018-Jul-06 17:00N 33°46' W 118°14'1 2.3
2018-Jul-06 16:31N 33°46' W 118°15'0 0.1
2018-Jul-06 16:00N 33°46' W 118°15'3 5.8
2018-Jul-06 15:30N 33°44' W 118°16'3 5.2
2018-Jul-06 15:00N 33°44' W 118°13'2 4.3
2018-Jul-06 14:30N 33°46' W 118°13'0 0.0
2018-Jul-06 14:00N 33°46' W 118°13'0 0.0
2018-Jul-06 13:30N 33°46' W 118°13'0 0.0
2018-Jul-06 13:00N 33°46' W 118°13'0 0.0
2018-Jul-06 12:30N 33°46' W 118°13'0 0.0
2018-Jul-06 12:00N 33°46' W 118°13'0 0.0
2018-Jul-06 11:30N 33°46' W 118°13'0 0.0
2018-Jul-06 11:00N 33°46' W 118°13'0 0.0
2018-Jul-06 10:31N 33°46' W 118°13'0 0.0
2018-Jul-06 10:00N 33°46' W 118°13'0 0.0
2018-Jul-06 09:30N 33°46' W 118°13'0 0.0
2018-Jul-06 09:01N 33°46' W 118°13'0 0.0
2018-Jul-06 08:30N 33°46' W 118°13'0 0.0
2018-Jul-06 08:00N 33°46' W 118°13'0 0.0
2018-Jul-06 07:30N 33°46' W 118°13'0 0.0
2018-Jul-06 07:00N 33°46' W 118°13'0 0.0
2018-Jul-06 06:30N 33°46' W 118°13'0 0.0
2018-Jul-06 06:00N 33°46' W 118°13'0 0.0
2018-Jul-06 05:31N 33°46' W 118°13'0 0.0
2018-Jul-06 05:00N 33°46' W 118°13'0 0.0
2018-Jul-06 04:30N 33°46' W 118°13'0 0.0
2018-Jul-06 04:01N 33°46' W 118°13'0 0.0
2018-Jul-06 03:30N 33°46' W 118°13'0 0.0
2018-Jul-06 03:01N 33°46' W 118°13'0 0.0
2018-Jul-06 02:30N 33°46' W 118°13'0 0.0
2018-Jul-06 02:00N 33°46' W 118°13'0 0.0
2018-Jul-06 01:30N 33°46' W 118°13'0 0.0
2018-Jul-06 01:00N 33°46' W 118°13'0 0.0
2018-Jul-06 00:31N 33°46' W 118°13'0 0.0
2018-Jul-06 00:00N 33°46' W 118°13'0 0.0
2018-Jul-05 23:30N 33°46' W 118°13'0 0.0
2018-Jul-05 23:00N 33°46' W 118°13'0 0.0
2018-Jul-05 22:30N 33°46' W 118°13'0 0.0
2018-Jul-05 22:00N 33°46' W 118°13'0 0.0
2018-Jul-05 21:29N 33°46' W 118°13'0 0.0
2018-Jul-05 21:01N 33°46' W 118°13'0 0.0
2018-Jul-05 20:30N 33°46' W 118°13'0 0.0
2018-Jul-05 20:00N 33°46' W 118°13'0 0.0
2018-Jul-05 19:30N 33°46' W 118°13'0 0.0
2018-Jul-05 19:00N 33°46' W 118°13'0 0.0
2018-Jul-05 18:30N 33°46' W 118°13'0 0.0
2018-Jul-05 18:01N 33°46' W 118°13'0 0.0
2018-Jul-05 17:30N 33°46' W 118°13'0 0.0
2018-Jul-05 17:00N 33°46' W 118°13'0 0.0
2018-Jul-05 16:30N 33°46' W 118°13'0 0.0
2018-Jul-05 16:00N 33°46' W 118°13'0 0.0
2018-Jul-05 15:30N 33°46' W 118°13'0 0.0
2018-Jul-05 15:00N 33°46' W 118°13'0 0.0
2018-Jul-05 14:00N 33°46' W 118°13'0 0.0
2018-Jul-05 13:30N 33°46' W 118°13'0 0.0
2018-Jul-05 13:00N 33°46' W 118°13'0 0.0
2018-Jul-05 12:30N 33°46' W 118°13'0 0.0
2018-Jul-05 12:01N 33°46' W 118°13'0 0.0
2018-Jul-05 11:30N 33°46' W 118°13'0 0.1
2018-Jul-05 11:00N 33°46' W 118°13'0 0.5
2018-Jul-05 10:30N 33°46' W 118°13'2 3.3
2018-Jul-05 10:00N 33°45' W 118°13'3 5.3
2018-Jul-05 09:30N 33°43' W 118°11'3 5.9
2018-Jul-05 09:00N 33°40' W 118°09'3 6.9
2018-Jul-05 08:30N 33°38' W 118°05'4 7.0
2018-Jul-05 08:00N 33°36' W 118°02'4 6.9
2018-Jul-05 07:28N 33°34' W 117°58'3 7.0
2018-Jul-05 07:00N 33°33' W 117°55'3 7.0
2018-Jul-05 06:31N 33°31' W 117°51'4 7.1
2018-Jul-05 06:01N 33°29' W 117°48'4 7.1
2018-Jul-05 05:30N 33°27' W 117°44'3 5.3
2018-Jul-05 05:00N 33°27' W 117°41'0 0.1
2018-Jul-05 04:30N 33°27' W 117°41'0 0.0
2018-Jul-05 04:00N 33°27' W 117°41'0 0.0
2018-Jul-05 03:30N 33°27' W 117°41'0 0.2
2018-Jul-05 03:00N 33°27' W 117°41'1 1.9
2018-Jul-05 02:30N 33°27' W 117°42'4 7.3
2018-Jul-05 02:00N 33°28' W 117°46'4 7.1
2018-Jul-05 01:30N 33°29' W 117°50'3 6.7
2018-Jul-05 01:01N 33°31' W 117°54'3 5.1
2018-Jul-05 00:30N 33°32' W 117°57'3 5.3
2018-Jul-05 00:00N 33°34' W 117°59'3 5.4
2018-Jul-04 23:30N 33°35' W 118°01'3 5.2
2018-Jul-04 23:00N 33°37' W 118°04'3 5.6
2018-Jul-04 22:30N 33°39' W 118°07'3 6.9
2018-Jul-04 22:00N 33°41' W 118°10'3 5.7
2018-Jul-04 21:30N 33°43' W 118°11'2 4.9
2018-Jul-04 21:00N 33°45' W 118°13'1 2.6
2018-Jul-04 20:30N 33°46' W 118°13'  
Track history (hours):
 
Tides and Currents Weather Stations Pressure Air Temp Water Temp Dewpoint Dewpoint Depression Visibility Wind Speed Wind Dir Waves Ship Positions

Seana C

Owner: Curtin Maritime Corp, long beach, CA. More information available from US FCC via Universal Licensing System and Coast Guard Vessel Documentation Center.

Last reported at 2018-Jul-14 20:06 UTC. Time now 2018-Jul-19 13:09 UTC.
Position N 33°46' W 118°13'.

Length 21 m; draft 3 m.

Type: Tug. MMSI: 367766860.

Date/timePositionNaut miles runAvg speedWind from/ knotsBaromVisibWave heightAir tempDewpointWater temp
2018-Jul-14 20:06N 33°46' W 118°13'0 0.0
2018-Jul-14 20:00N 33°46' W 118°13'1 3.0
2018-Jul-14 19:30N 33°45' W 118°13'3 6.5
2018-Jul-14 19:00N 33°43' W 118°16'0 0.1
2018-Jul-14 18:30N 33°43' W 118°17'0 0.1
2018-Jul-14 18:00N 33°43' W 118°16'0 0.5
2018-Jul-14 17:30N 33°43' W 118°16'0 0.5
2018-Jul-14 17:00N 33°43' W 118°16'0 0.1
2018-Jul-14 16:30N 33°43' W 118°16'3 6.6
2018-Jul-14 16:00N 33°45' W 118°13'1 0.0
2018-Jul-12 15:14N 33°46' W 118°13'0 0.5
2018-Jul-12 15:00N 33°46' W 118°13'0 0.0
2018-Jul-11 17:00N 33°46' W 118°13'0 0.0
2018-Jul-10 21:16N 33°46' W 118°13'0 0.0
2018-Jul-10 21:00N 33°46' W 118°13'0 0.0
2018-Jul-10 20:30N 33°46' W 118°13'0 0.0
2018-Jul-10 20:00N 33°46' W 118°13'0 0.0
2018-Jul-10 19:30N 33°46' W 118°13'2 4.5
2018-Jul-10 19:00N 33°44' W 118°12'5 9.6
2018-Jul-10 18:30N 33°44' W 118°06'1 1.4
2018-Jul-10 18:00N 33°44' W 118°06'3 6.0
2018-Jul-10 17:30N 33°41' W 118°05'4 8.2
2018-Jul-10 17:00N 33°38' W 118°03'4 8.1
2018-Jul-10 16:30N 33°34' W 117°60'4 8.0
2018-Jul-10 16:00N 33°31' W 117°57'4 8.1
2018-Jul-10 15:30N 33°28' W 117°54'4 8.0
2018-Jul-10 15:00N 33°24' W 117°52'4 8.0
2018-Jul-10 14:30N 33°21' W 117°49'4 7.9
2018-Jul-10 14:00N 33°18' W 117°46'4 7.8
2018-Jul-10 13:30N 33°14' W 117°44'4 7.9
2018-Jul-10 13:00N 33°11' W 117°41'4 7.8
2018-Jul-10 12:30N 33°08' W 117°39'4 7.8
2018-Jul-10 12:01N 33°05' W 117°36'4 7.9
2018-Jul-10 11:31N 33°01' W 117°33'4 8.1
2018-Jul-10 11:00N 32°58' W 117°30'4 8.1
2018-Jul-10 10:30N 32°55' W 117°28'4 7.9
2018-Jul-10 10:00N 32°52' W 117°25'4 7.8
2018-Jul-10 09:30N 32°48' W 117°23'4 7.6
2018-Jul-10 09:00N 32°45' W 117°20'4 7.8
2018-Jul-10 08:29N 32°42' W 117°17'4 7.7
2018-Jul-10 08:00N 32°39' W 117°15'3 6.0
2018-Jul-10 07:30N 32°42' W 117°14'6 5.8
2018-Jul-10 06:31N 32°40' W 117°08'0 8.9
2018-Jul-10 06:30N 32°40' W 117°08'2 3.8
2018-Jul-10 06:00N 32°38' W 117°07'1 1.0
2018-Jul-10 05:29N 32°38' W 117°07'4 7.3
2018-Jul-10 04:56N 32°42' W 117°09'2 3.6
2018-Jul-10 04:25N 32°43' W 117°11'3 6.2
2018-Jul-10 04:00N 32°42' W 117°14'3 6.3
2018-Jul-10 03:30N 32°39' W 117°14'3 6.9
2018-Jul-10 03:00N 32°41' W 117°17'4 8.0
2018-Jul-10 02:30N 32°44' W 117°20'4 7.7
2018-Jul-10 02:00N 32°48' W 117°22'4 7.9
2018-Jul-10 01:30N 32°51' W 117°25'4 7.8
2018-Jul-10 01:00N 32°54' W 117°27'4 7.8
2018-Jul-10 00:31N 32°58' W 117°30'4 7.7
2018-Jul-10 00:00N 33°01' W 117°33'4 8.0
2018-Jul-09 23:30N 33°04' W 117°35'4 8.0
2018-Jul-09 23:00N 33°07' W 117°38'4 8.0
2018-Jul-09 22:30N 33°11' W 117°40'4 7.8
2018-Jul-09 22:01N 33°14' W 117°43'4 8.1
2018-Jul-09 21:31N 33°17' W 117°46'4 8.0
2018-Jul-09 21:00N 33°21' W 117°48'4 8.0
2018-Jul-09 20:30N 33°24' W 117°51'4 8.0
2018-Jul-09 20:00N 33°27' W 117°54'4 7.9
2018-Jul-09 19:30N 33°30' W 117°57'4 7.8
2018-Jul-09 19:01N 33°33' W 117°59'4 7.7
2018-Jul-09 18:30N 33°37' W 118°02'4 7.5
2018-Jul-09 18:00N 33°40' W 118°04'4 7.3
2018-Jul-09 17:30N 33°43' W 118°07'1 2.9
2018-Jul-09 17:00N 33°44' W 118°06'0 0.0
2018-Jul-09 16:29N 33°44' W 118°06'4 7.6
2018-Jul-09 16:00N 33°44' W 118°10'3 6.6
2018-Jul-09 15:30N 33°46' W 118°13'0 0.3
2018-Jul-09 15:00N 33°46' W 118°13'0 0.0
2018-Jul-08 01:14N 33°46' W 118°13'0 0.0
2018-Jul-08 00:59N 33°46' W 118°13'0 0.1
2018-Jul-08 00:25N 33°46' W 118°13'0 0.1
2018-Jul-07 23:54N 33°46' W 118°13'0 0.0
2018-Jul-07 23:29N 33°46' W 118°13'0 0.0
2018-Jul-07 23:00N 33°46' W 118°13'0 0.0
2018-Jul-07 22:28N 33°46' W 118°13'0 0.1
2018-Jul-07 21:58N 33°46' W 118°13'0 0.0
2018-Jul-07 21:27N 33°46' W 118°13'0 0.0
2018-Jul-07 20:59N 33°46' W 118°13'0 0.0
2018-Jul-07 20:26N 33°46' W 118°13'0 0.0
2018-Jul-07 19:59N 33°46' W 118°13'0 0.0
2018-Jul-07 19:28N 33°46' W 118°13'0 0.0
2018-Jul-07 18:55N 33°46' W 118°13'0 0.0
2018-Jul-07 18:20N 33°46' W 118°13'0 0.0
2018-Jul-07 17:59N 33°46' W 118°13'0 0.0
2018-Jul-07 17:26N 33°46' W 118°13'0 0.0
2018-Jul-07 17:00N 33°46' W 118°13'0 0.0
2018-Jul-07 16:29N 33°46' W 118°13'0 0.0
2018-Jul-07 16:00N 33°46' W 118°13'0 0.0
2018-Jul-07 15:30N 33°46' W 118°13'0 0.0
2018-Jul-07 14:58N 33°46' W 118°13'0 0.0
2018-Jul-07 14:28N 33°46' W 118°13'0 0.0
2018-Jul-07 13:59N 33°46' W 118°13'0 0.0
2018-Jul-07 13:29N 33°46' W 118°13'0 0.0
2018-Jul-07 12:58N 33°46' W 118°13'0 0.0
2018-Jul-07 12:28N 33°46' W 118°13'0 0.0
2018-Jul-07 12:00N 33°46' W 118°13'0 0.0
2018-Jul-07 11:25N 33°46' W 118°13'0 0.0
2018-Jul-07 10:57N 33°46' W 118°13'0 0.0
2018-Jul-07 10:30N 33°46' W 118°13'0 0.0
2018-Jul-07 09:58N 33°46' W 118°13'0 0.0
2018-Jul-07 09:26N 33°46' W 118°13'0 0.0
2018-Jul-07 08:54N 33°46' W 118°13'0 0.0
2018-Jul-07 08:28N 33°46' W 118°13'0 0.0
2018-Jul-07 07:51N 33°46' W 118°13'0 0.0
2018-Jul-07 07:29N 33°46' W 118°13'0 0.0
2018-Jul-07 07:00N 33°46' W 118°13'0 0.0
2018-Jul-07 06:29N 33°46' W 118°13'0 0.0
2018-Jul-07 05:58N 33°46' W 118°13'0 0.0
2018-Jul-07 05:29N 33°46' W 118°13'0 0.0
2018-Jul-07 04:58N 33°46' W 118°13'0 0.0
2018-Jul-07 04:30N 33°46' W 118°13'0 0.0
2018-Jul-07 03:49N 33°46' W 118°13'0 0.0
2018-Jul-07 03:27N 33°46' W 118°13'0 0.0
2018-Jul-07 02:55N 33°46' W 118°13'0 0.0
2018-Jul-07 02:29N 33°46' W 118°13'0 0.0
2018-Jul-07 01:56N 33°46' W 118°13'0 0.0
2018-Jul-07 01:30N 33°46' W 118°13'0 0.0
2018-Jul-07 00:58N 33°46' W 118°13'0 0.0
2018-Jul-07 00:28N 33°46' W 118°13'0 0.0
2018-Jul-07 00:00N 33°46' W 118°13'0 0.0
2018-Jul-06 23:23N 33°46' W 118°13'0 0.0
2018-Jul-06 23:00N 33°46' W 118°13'0 0.0
2018-Jul-06 22:28N 33°46' W 118°13'0 0.0
2018-Jul-06 21:58N 33°46' W 118°13'0 0.0
2018-Jul-06 21:26N 33°46' W 118°13'0 0.0
2018-Jul-06 20:55N 33°46' W 118°13'0 0.0
2018-Jul-06 20:21N 33°46' W 118°13'0 0.0
2018-Jul-06 19:57N 33°46' W 118°13'0 0.0
2018-Jul-06 19:24N 33°46' W 118°13'0 0.0
2018-Jul-06 19:01N 33°46' W 118°13'0 0.2
2018-Jul-06 18:30N 33°46' W 118°13'0 0.1
2018-Jul-06 18:01N 33°46' W 118°13'0 0.1
2018-Jul-06 17:30N 33°46' W 118°13'1 1.7
2018-Jul-06 17:00N 33°46' W 118°14'1 2.3
2018-Jul-06 16:31N 33°46' W 118°15'0 0.1
2018-Jul-06 16:00N 33°46' W 118°15'3 5.8
2018-Jul-06 15:30N 33°44' W 118°16'3 5.2
2018-Jul-06 15:00N 33°44' W 118°13'2 4.3
2018-Jul-06 14:30N 33°46' W 118°13'0 0.0
2018-Jul-06 14:00N 33°46' W 118°13'0 0.0
2018-Jul-06 13:30N 33°46' W 118°13'0 0.0
2018-Jul-06 13:00N 33°46' W 118°13'0 0.0
2018-Jul-06 12:30N 33°46' W 118°13'0 0.0
2018-Jul-06 12:00N 33°46' W 118°13'0 0.0
2018-Jul-06 11:30N 33°46' W 118°13'0 0.0
2018-Jul-06 11:00N 33°46' W 118°13'0 0.0
2018-Jul-06 10:31N 33°46' W 118°13'0 0.0
2018-Jul-06 10:00N 33°46' W 118°13'0 0.0
2018-Jul-06 09:30N 33°46' W 118°13'0 0.0
2018-Jul-06 09:01N 33°46' W 118°13'0 0.0
2018-Jul-06 08:30N 33°46' W 118°13'0 0.0
2018-Jul-06 08:00N 33°46' W 118°13'0 0.0
2018-Jul-06 07:30N 33°46' W 118°13'0 0.0
2018-Jul-06 07:00N 33°46' W 118°13'0 0.0
2018-Jul-06 06:30N 33°46' W 118°13'0 0.0
2018-Jul-06 06:00N 33°46' W 118°13'0 0.0
2018-Jul-06 05:31N 33°46' W 118°13'0 0.0
2018-Jul-06 05:00N 33°46' W 118°13'0 0.0
2018-Jul-06 04:30N 33°46' W 118°13'0 0.0
2018-Jul-06 04:01N 33°46' W 118°13'0 0.0
2018-Jul-06 03:30N 33°46' W 118°13'0 0.0
2018-Jul-06 03:01N 33°46' W 118°13'0 0.0
2018-Jul-06 02:30N 33°46' W 118°13'0 0.0
2018-Jul-06 02:00N 33°46' W 118°13'0 0.0
2018-Jul-06 01:30N 33°46' W 118°13'0 0.0
2018-Jul-06 01:00N 33°46' W 118°13'0 0.0
2018-Jul-06 00:31N 33°46' W 118°13'0 0.0
2018-Jul-06 00:00N 33°46' W 118°13'0 0.0
2018-Jul-05 23:30N 33°46' W 118°13'0 0.0
2018-Jul-05 23:00N 33°46' W 118°13'0 0.0
2018-Jul-05 22:30N 33°46' W 118°13'0 0.0
2018-Jul-05 22:00N 33°46' W 118°13'0 0.0
2018-Jul-05 21:29N 33°46' W 118°13'0 0.0
2018-Jul-05 21:01N 33°46' W 118°13'0 0.0
2018-Jul-05 20:30N 33°46' W 118°13'0 0.0
2018-Jul-05 20:00N 33°46' W 118°13'0 0.0
2018-Jul-05 19:30N 33°46' W 118°13'0 0.0
2018-Jul-05 19:00N 33°46' W 118°13'0 0.0
2018-Jul-05 18:30N 33°46' W 118°13'0 0.0
2018-Jul-05 18:01N 33°46' W 118°13'0 0.0
2018-Jul-05 17:30N 33°46' W 118°13'0 0.0
2018-Jul-05 17:00N 33°46' W 118°13'0 0.0
2018-Jul-05 16:30N 33°46' W 118°13'0 0.0
2018-Jul-05 16:00N 33°46' W 118°13'0 0.0
2018-Jul-05 15:30N 33°46' W 118°13'0 0.0
2018-Jul-05 15:00N 33°46' W 118°13'0 0.0
2018-Jul-05 14:00N 33°46' W 118°13'0 0.0
2018-Jul-05 13:30N 33°46' W 118°13'0 0.0
2018-Jul-05 13:00N 33°46' W 118°13'0 0.0
2018-Jul-05 12:30N 33°46' W 118°13'0 0.0
2018-Jul-05 12:01N 33°46' W 118°13'0 0.0
2018-Jul-05 11:30N 33°46' W 118°13'0 0.1
2018-Jul-05 11:00N 33°46' W 118°13'0 0.5
2018-Jul-05 10:30N 33°46' W 118°13'2 3.3
2018-Jul-05 10:00N 33°45' W 118°13'3 5.3
2018-Jul-05 09:30N 33°43' W 118°11'3 5.9
2018-Jul-05 09:00N 33°40' W 118°09'3 6.9
2018-Jul-05 08:30N 33°38' W 118°05'4 7.0
2018-Jul-05 08:00N 33°36' W 118°02'4 6.9
2018-Jul-05 07:28N 33°34' W 117°58'3 7.0
2018-Jul-05 07:00N 33°33' W 117°55'3 7.0
2018-Jul-05 06:31N 33°31' W 117°51'4 7.1
2018-Jul-05 06:01N 33°29' W 117°48'4 7.1
2018-Jul-05 05:30N 33°27' W 117°44'3 5.3
2018-Jul-05 05:00N 33°27' W 117°41'0 0.1
2018-Jul-05 04:30N 33°27' W 117°41'0 0.0
2018-Jul-05 04:00N 33°27' W 117°41'0 0.0
2018-Jul-05 03:30N 33°27' W 117°41'0 0.2
2018-Jul-05 03:00N 33°27' W 117°41'1 1.9
2018-Jul-05 02:30N 33°27' W 117°42'4 7.3
2018-Jul-05 02:00N 33°28' W 117°46'4 7.1
2018-Jul-05 01:30N 33°29' W 117°50'3 6.7
2018-Jul-05 01:01N 33°31' W 117°54'3 5.1
2018-Jul-05 00:30N 33°32' W 117°57'3 5.3
2018-Jul-05 00:00N 33°34' W 117°59'3 5.4
2018-Jul-04 23:30N 33°35' W 118°01'3 5.2
2018-Jul-04 23:00N 33°37' W 118°04'3 5.6
2018-Jul-04 22:30N 33°39' W 118°07'3 6.9
2018-Jul-04 22:00N 33°41' W 118°10'3 5.7
2018-Jul-04 21:30N 33°43' W 118°11'2 4.9
2018-Jul-04 21:00N 33°45' W 118°13'1 2.6
2018-Jul-04 20:30N 33°46' W 118°13'  

Dump ship's entire track history